createdAt,value
2023-03-24T00:01:28.543Z,11.73
2023-03-24T00:04:29.688Z,11.71
2023-03-24T00:07:36.542Z,11.66
2023-03-24T00:10:40.802Z,11.62
2023-03-24T00:13:44.587Z,11.59
2023-03-24T00:16:44.619Z,11.55
2023-03-24T00:19:44.828Z,11.51
2023-03-24T00:22:48.604Z,11.49
2023-03-24T00:25:48.725Z,11.47
2023-03-24T00:28:54.608Z,11.43
2023-03-24T00:31:54.710Z,11.40
2023-03-24T00:34:55.900Z,11.37
2023-03-24T00:37:59.489Z,11.35
2023-03-24T00:40:59.605Z,11.35
2023-03-24T00:44:00.613Z,11.36
2023-03-24T00:47:05.789Z,11.38
2023-03-24T00:50:07.665Z,11.38
2023-03-24T00:53:09.680Z,11.38
2023-03-24T00:56:09.699Z,11.37
2023-03-24T00:59:03.002Z,11.36
2023-03-24T01:02:05.678Z,11.34
2023-03-24T01:05:08.010Z,11.31
2023-03-24T01:08:11.694Z,11.30
2023-03-24T01:11:13.708Z,11.29
2023-03-24T01:14:15.719Z,11.29
2023-03-24T01:17:20.634Z,11.29
2023-03-24T01:20:20.775Z,11.28
2023-03-24T01:23:21.792Z,11.26
2023-03-24T01:26:22.865Z,11.24
2023-03-24T01:29:22.713Z,11.23
2023-03-24T01:32:23.804Z,11.22
2023-03-24T01:35:29.398Z,11.22
2023-03-24T01:38:30.681Z,11.23
2023-03-24T01:41:30.739Z,11.24
2023-03-24T01:44:36.732Z,11.29
2023-03-24T01:47:36.741Z,11.35
2023-03-24T01:50:37.695Z,11.37
2023-03-24T01:53:39.748Z,11.38
2023-03-24T01:56:43.328Z,11.41
2023-03-24T01:59:43.732Z,11.43
2023-03-24T02:03:15.779Z,11.45
2023-03-24T02:06:19.756Z,11.45
2023-03-24T02:09:24.070Z,11.44
2023-03-24T02:12:24.757Z,11.39
2023-03-24T02:15:25.759Z,11.35
2023-03-24T02:18:38.803Z,11.31
2023-03-24T02:21:51.852Z,11.26
2023-03-24T02:25:03.934Z,11.22
2023-03-24T02:28:35.831Z,11.17
2023-03-24T02:31:50.109Z,11.12
2023-03-24T02:35:05.843Z,11.08
2023-03-24T02:38:24.830Z,11.08
2023-03-24T02:41:31.077Z,11.09
2023-03-24T02:44:44.877Z,11.11
2023-03-24T02:47:52.961Z,11.12
2023-03-24T02:51:11.885Z,11.14
2023-03-24T02:54:17.874Z,11.14
2023-03-24T02:57:19.072Z,11.15
2023-03-24T03:00:48.233Z,11.16
2023-03-24T03:04:07.880Z,11.16
2023-03-24T03:07:15.876Z,11.18
2023-03-24T03:10:23.615Z,11.20
2023-03-24T03:13:29.920Z,11.21
2023-03-24T03:16:44.860Z,11.23
2023-03-24T03:19:48.164Z,11.24
2023-03-24T03:23:08.893Z,11.21
2023-03-24T03:26:10.901Z,11.17
2023-03-24T03:29:10.889Z,11.15
2023-03-24T03:32:17.058Z,11.13
2023-03-24T03:35:23.900Z,11.13
2023-03-24T03:38:26.910Z,11.13
2023-03-24T03:41:26.901Z,11.14
2023-03-24T03:44:27.941Z,11.15
2023-03-24T03:47:28.986Z,11.15
2023-03-24T03:50:28.967Z,11.16
2023-03-24T03:53:32.911Z,11.17
2023-03-24T03:56:34.980Z,11.18
2023-03-24T03:59:47.159Z,11.20
2023-03-24T04:03:05.186Z,11.22
2023-03-24T04:06:09.050Z,11.23
2023-03-24T04:09:30.242Z,11.23
2023-03-24T04:12:40.145Z,11.25
2023-03-24T04:16:24.472Z,11.25
2023-03-24T04:19:39.971Z,11.27
2023-03-24T04:22:56.984Z,11.29
2023-03-24T04:26:03.986Z,11.29
2023-03-24T04:29:26.033Z,11.30
2023-03-24T04:32:42.031Z,11.33
2023-03-24T04:35:50.121Z,11.35
2023-03-24T04:39:03.016Z,11.37
2023-03-24T04:42:11.023Z,11.38
2023-03-24T04:45:12.076Z,11.40
2023-03-24T04:48:13.111Z,11.42
2023-03-24T04:51:35.036Z,11.45
2023-03-24T04:54:58.109Z,11.46
2023-03-24T04:58:02.019Z,11.48
2023-03-24T05:01:04.075Z,11.50
2023-03-24T05:04:04.088Z,11.53
2023-03-24T05:07:08.081Z,11.57
2023-03-24T05:10:10.083Z,11.59
2023-03-24T05:13:18.164Z,11.62
2023-03-24T05:16:21.100Z,11.63
2023-03-24T05:19:30.552Z,11.66
2023-03-24T05:22:32.182Z,11.66
2023-03-24T05:25:33.336Z,11.68
2023-03-24T05:28:35.145Z,11.69
2023-03-24T05:31:38.802Z,11.73
2023-03-24T05:34:53.668Z,11.77
2023-03-24T05:37:58.201Z,11.83
2023-03-24T05:40:58.221Z,11.98
2023-03-24T05:44:01.119Z,12.20
2023-03-24T05:47:02.976Z,12.45
2023-03-24T05:50:06.597Z,12.64
2023-03-24T05:53:14.203Z,12.76
2023-03-24T05:56:44.191Z,12.98
2023-03-24T06:00:00.182Z,13.51
2023-03-24T06:03:16.428Z,14.14
2023-03-24T06:06:30.104Z,14.63
2023-03-24T06:09:35.273Z,14.86
2023-03-24T06:12:44.993Z,15.06
2023-03-24T06:15:53.265Z,15.14
2023-03-24T06:19:01.204Z,15.29
2023-03-24T06:22:30.236Z,15.38
2023-03-24T06:25:34.187Z,15.44
2023-03-24T06:28:41.244Z,15.26
2023-03-24T06:31:54.586Z,15.05
2023-03-24T06:34:55.386Z,14.90
2023-03-24T06:38:20.455Z,14.69
2023-03-24T06:41:24.236Z,14.52
2023-03-24T06:44:30.403Z,14.34
2023-03-24T06:47:33.779Z,14.12
2023-03-24T06:50:41.162Z,13.93
2023-03-24T06:53:47.279Z,13.73
2023-03-24T06:56:49.349Z,13.58
2023-03-24T06:59:53.312Z,13.46
2023-03-24T07:02:58.411Z,13.39
2023-03-24T07:06:01.313Z,13.34
2023-03-24T07:09:03.256Z,13.30
2023-03-24T07:12:04.449Z,13.31
2023-03-24T07:15:04.298Z,13.33
2023-03-24T07:18:06.274Z,13.34
2023-03-24T07:21:19.781Z,13.37
2023-03-24T07:24:22.537Z,13.40
2023-03-24T07:27:35.539Z,13.41
2023-03-24T07:30:41.386Z,13.41
2023-03-24T07:33:41.361Z,13.46
2023-03-24T07:36:42.530Z,13.49
2023-03-24T07:39:50.565Z,13.48
2023-03-24T07:42:53.339Z,13.53
2023-03-24T07:46:20.396Z,13.62
2023-03-24T07:49:21.341Z,13.69
2023-03-24T07:52:30.361Z,13.75
2023-03-24T07:55:33.386Z,13.82
2023-03-24T07:58:39.446Z,13.89
2023-03-24T08:01:43.382Z,13.95
2023-03-24T08:04:51.066Z,13.97
2023-03-24T08:08:30.414Z,13.97
2023-03-24T08:11:35.387Z,13.92
2023-03-24T08:14:40.499Z,13.95
2023-03-24T08:17:49.744Z,13.99
2023-03-24T08:21:01.604Z,14.02
2023-03-24T08:24:10.527Z,14.08
2023-03-24T08:27:16.661Z,14.10
2023-03-24T08:30:21.548Z,14.10
2023-03-24T08:33:23.457Z,14.11
2023-03-24T08:36:24.547Z,14.12
2023-03-24T08:39:24.502Z,14.16
2023-03-24T08:42:28.889Z,14.20
2023-03-24T08:45:36.657Z,14.29
2023-03-24T08:48:47.679Z,14.39
2023-03-24T08:51:51.848Z,14.49
2023-03-24T08:54:57.655Z,14.64
2023-03-24T08:58:01.564Z,14.78
2023-03-24T09:01:04.509Z,14.94
2023-03-24T09:04:05.566Z,15.05
2023-03-24T09:07:06.528Z,15.11
2023-03-24T09:10:07.517Z,15.21
2023-03-24T09:13:09.528Z,15.31
2023-03-24T09:16:12.982Z,15.42
2023-03-24T09:19:32.071Z,15.56
2023-03-24T09:22:37.080Z,15.78
2023-03-24T09:25:41.746Z,15.97
2023-03-24T09:28:43.538Z,16.13
2023-03-24T09:31:43.814Z,16.24
2023-03-24T09:34:46.531Z,16.31
2023-03-24T09:37:50.900Z,16.38
2023-03-24T09:40:51.525Z,16.42
2023-03-24T09:44:08.588Z,16.45
2023-03-24T09:47:18.517Z,16.45
2023-03-24T09:50:34.145Z,16.52
2023-03-24T09:54:02.017Z,16.66
2023-03-24T09:57:05.641Z,16.87
2023-03-24T10:00:08.587Z,17.11
2023-03-24T10:03:13.682Z,17.37
2023-03-24T10:06:39.149Z,17.54
2023-03-24T10:09:42.773Z,17.71
2023-03-24T10:12:52.923Z,17.98
2023-03-24T10:16:04.630Z,18.32
2023-03-24T10:19:09.877Z,18.68
2023-03-24T10:22:31.658Z,18.81
2023-03-24T10:25:34.658Z,18.94
2023-03-24T10:28:45.074Z,19.04
2023-03-24T10:32:03.490Z,19.00
2023-03-24T10:35:18.373Z,18.87
2023-03-24T10:38:30.641Z,18.68
2023-03-24T10:41:43.911Z,18.38
2023-03-24T10:44:54.079Z,18.28
2023-03-24T10:47:58.158Z,18.31
2023-03-24T10:51:04.873Z,18.39
2023-03-24T10:54:08.762Z,18.49
2023-03-24T10:57:12.790Z,18.54
2023-03-24T11:00:30.834Z,18.59
2023-03-24T11:03:40.022Z,18.77
2023-03-24T11:06:46.145Z,19.02
2023-03-24T11:10:00.861Z,19.27
2023-03-24T11:13:17.950Z,19.43
2023-03-24T11:16:26.760Z,19.54
2023-03-24T11:19:33.287Z,19.58
2023-03-24T11:22:35.982Z,19.66
2023-03-24T11:25:43.801Z,19.76
2023-03-24T11:28:44.745Z,19.86
2023-03-24T11:31:50.854Z,19.96
2023-03-24T11:34:51.760Z,20.05
2023-03-24T11:37:55.919Z,20.01
2023-03-24T11:41:11.810Z,19.85
2023-03-24T11:44:29.284Z,19.68
2023-03-24T11:48:03.351Z,19.48
2023-03-24T11:51:04.790Z,19.38
2023-03-24T11:54:09.347Z,19.30
2023-03-24T11:57:11.329Z,19.29
2023-03-24T12:00:15.070Z,19.39
2023-03-24T12:03:27.999Z,19.63
2023-03-24T12:06:58.593Z,19.97
2023-03-24T12:10:14.895Z,20.42
2023-03-24T12:13:54.089Z,20.75
2023-03-24T12:17:10.857Z,21.17
2023-03-24T12:20:21.857Z,21.57
2023-03-24T12:23:46.485Z,21.64
2023-03-24T12:26:57.911Z,21.51
2023-03-24T12:30:14.746Z,21.35
2023-03-24T12:33:31.863Z,21.35
2023-03-24T12:36:43.059Z,21.56
2023-03-24T12:39:45.457Z,21.43
2023-03-24T12:42:52.117Z,21.21
2023-03-24T12:46:08.214Z,20.84
2023-03-24T12:49:34.087Z,20.38
2023-03-24T12:53:06.800Z,19.90
2023-03-24T12:56:28.158Z,19.53
2023-03-24T12:59:51.137Z,19.56
2023-03-24T13:10:27.985Z,19.98
2023-03-24T13:13:35.384Z,19.97
2023-03-24T13:16:51.036Z,20.01
2023-03-24T13:19:58.532Z,20.03
2023-03-24T13:23:01.016Z,20.09
2023-03-24T13:26:08.411Z,20.24
2023-03-24T13:29:47.963Z,20.30
2023-03-24T13:32:53.103Z,20.16
2023-03-24T13:36:01.700Z,20.01
2023-03-24T13:39:05.346Z,19.92
2023-03-24T13:42:09.100Z,19.91
2023-03-24T13:45:08.969Z,19.92
2023-03-24T13:48:12.164Z,19.93
2023-03-24T13:51:34.283Z,19.88
2023-03-24T13:54:43.793Z,19.74
2023-03-24T13:57:48.010Z,19.62
2023-03-24T14:01:13.509Z,19.50
2023-03-24T14:04:30.628Z,19.35
2023-03-24T14:07:39.049Z,19.21
2023-03-24T14:11:01.052Z,19.08
2023-03-24T14:14:04.604Z,18.96
2023-03-24T14:17:07.031Z,18.89
2023-03-24T14:20:20.475Z,18.86
2023-03-24T14:23:30.150Z,18.80
2023-03-24T14:26:34.028Z,18.76
2023-03-24T14:29:48.197Z,18.73
2023-03-24T14:32:52.232Z,18.70
2023-03-24T14:35:55.123Z,18.66
2023-03-24T14:38:56.098Z,18.61
2023-03-24T14:41:59.246Z,18.56
2023-03-24T14:45:04.246Z,18.50
2023-03-24T14:48:11.114Z,18.48
2023-03-24T14:51:33.261Z,18.46
2023-03-24T14:54:43.125Z,18.43
2023-03-24T14:57:46.898Z,18.42
2023-03-24T15:01:06.403Z,18.37
2023-03-24T15:04:21.787Z,18.32
2023-03-24T15:07:28.733Z,18.25
2023-03-24T15:10:30.468Z,18.19
2023-03-24T15:13:52.219Z,18.15
2023-03-24T15:16:56.173Z,18.11
2023-03-24T15:20:05.582Z,18.08
2023-03-24T15:23:06.180Z,18.05
2023-03-24T15:26:10.153Z,18.01
2023-03-24T15:29:14.403Z,17.96
2023-03-24T15:32:14.133Z,17.93
2023-03-24T15:35:19.777Z,17.87
2023-03-24T15:38:34.823Z,17.82
2023-03-24T15:41:39.904Z,17.77
2023-03-24T15:44:42.971Z,17.72
2023-03-24T15:47:46.472Z,17.66
2023-03-24T15:50:54.404Z,17.59
2023-03-24T15:53:57.647Z,17.55
2023-03-24T15:56:58.260Z,17.51
2023-03-24T16:00:02.533Z,17.47
2023-03-24T16:03:09.771Z,17.41
2023-03-24T16:06:11.468Z,17.37
2023-03-24T16:09:11.236Z,17.36
2023-03-24T16:12:15.258Z,17.35
2023-03-24T16:15:17.261Z,17.33
2023-03-24T16:18:21.572Z,17.29
2023-03-24T16:21:38.721Z,17.23
2023-03-24T16:24:42.345Z,17.19
2023-03-24T16:27:43.292Z,17.18
2023-03-24T16:30:46.629Z,17.15
2023-03-24T16:33:51.269Z,17.11
2023-03-24T16:36:54.563Z,17.08
2023-03-24T16:39:57.304Z,17.03
2023-03-24T16:43:02.391Z,17.01
2023-03-24T16:46:12.749Z,16.98
2023-03-24T16:49:16.348Z,16.95
2023-03-24T16:52:22.496Z,16.93
2023-03-24T16:55:32.360Z,16.92
2023-03-24T16:58:35.712Z,16.90
2023-03-24T17:01:53.616Z,16.88
2023-03-24T17:04:55.456Z,16.85
2023-03-24T17:08:01.973Z,16.81
2023-03-24T17:11:09.874Z,16.78
2023-03-24T17:14:18.370Z,16.74
2023-03-24T17:17:27.089Z,16.74
2023-03-24T17:20:29.675Z,16.72
2023-03-24T17:23:33.626Z,16.70
2023-03-24T17:26:34.622Z,16.68
2023-03-24T17:29:37.397Z,16.64
2023-03-24T17:32:46.026Z,16.61
2023-03-24T17:35:49.357Z,16.58
2023-03-24T17:38:55.773Z,16.55
2023-03-24T17:42:03.421Z,16.53
2023-03-24T17:45:04.660Z,16.52
2023-03-24T17:48:14.911Z,16.51
2023-03-24T17:51:36.682Z,16.52
2023-03-24T17:54:39.627Z,16.53
2023-03-24T17:57:41.465Z,16.53
2023-03-24T18:00:44.002Z,16.52
2023-03-24T18:03:56.761Z,16.52
2023-03-24T18:06:57.480Z,16.50
2023-03-24T18:10:01.216Z,16.46
2023-03-24T18:13:21.488Z,16.41
2023-03-24T18:16:23.554Z,16.36
2023-03-24T18:19:25.470Z,16.31
2023-03-24T18:22:50.645Z,16.26
2023-03-24T18:25:51.520Z,16.21
2023-03-24T18:28:53.469Z,16.16
2023-03-24T18:31:59.360Z,16.13
2023-03-24T18:35:01.518Z,16.11
2023-03-24T18:38:04.499Z,16.08
2023-03-24T18:41:16.769Z,16.05
2023-03-24T18:44:23.532Z,16.02
2023-03-24T18:47:25.531Z,15.99
2023-03-24T18:50:26.558Z,15.97
2023-03-24T18:53:32.504Z,15.94
2023-03-24T18:56:34.840Z,15.91
2023-03-24T18:59:36.604Z,15.87
2023-03-24T19:02:37.625Z,15.84
2023-03-24T19:05:41.021Z,15.82
2023-03-24T19:08:46.461Z,15.77
2023-03-24T19:11:50.931Z,15.73
2023-03-24T19:14:52.644Z,15.67
2023-03-24T19:17:53.023Z,15.63
2023-03-24T19:20:54.606Z,15.60
2023-03-24T19:23:55.568Z,15.55
2023-03-24T19:26:55.561Z,15.51
2023-03-24T19:29:57.878Z,15.47
2023-03-24T19:33:01.763Z,15.44
2023-03-24T19:36:03.711Z,15.41
2023-03-24T19:39:07.549Z,15.38
2023-03-24T19:42:13.667Z,15.35
2023-03-24T19:45:17.036Z,15.33
2023-03-24T19:48:16.769Z,15.29
2023-03-24T19:51:20.697Z,15.26
2023-03-24T19:54:22.344Z,15.25
2023-03-24T19:57:25.257Z,15.25
2023-03-24T20:00:30.194Z,15.25
2023-03-24T20:03:32.239Z,15.25
2023-03-24T20:06:35.822Z,15.25
2023-03-24T20:09:37.512Z,15.24
2023-03-24T20:15:55.959Z,15.25
2023-03-24T20:19:00.923Z,15.24
2023-03-24T20:22:06.317Z,15.24
2023-03-24T20:25:11.005Z,15.26
2023-03-24T20:28:26.913Z,15.27
2023-03-24T20:31:31.051Z,15.29
2023-03-24T20:34:32.710Z,15.29
2023-03-24T20:37:37.779Z,15.31
2023-03-24T20:40:48.743Z,15.31
2023-03-24T20:44:09.330Z,15.30
2023-03-24T20:47:10.851Z,15.29
2023-03-24T20:50:15.134Z,15.27
2023-03-24T20:53:22.765Z,15.25
2023-03-24T20:56:29.010Z,15.24
2023-03-24T21:02:52.997Z,15.19
2023-03-24T21:06:19.760Z,15.16
2023-03-24T21:09:26.617Z,15.12
2023-03-24T21:12:31.060Z,15.11
2023-03-24T21:15:34.967Z,15.09
2023-03-24T21:18:45.792Z,15.07
2023-03-24T21:21:51.273Z,15.05
2023-03-24T21:24:54.314Z,15.02
2023-03-24T21:27:56.804Z,15.00
2023-03-24T21:30:59.333Z,14.97
2023-03-24T21:34:02.052Z,14.94
2023-03-24T21:37:03.039Z,14.90
2023-03-24T21:40:07.245Z,14.85
2023-03-24T21:43:10.829Z,14.82
2023-03-24T21:46:13.154Z,14.79
2023-03-24T21:49:17.928Z,14.75
2023-03-24T21:52:26.323Z,14.71
2023-03-24T21:55:34.411Z,14.67
2023-03-24T21:58:38.918Z,14.64
2023-03-24T22:01:42.546Z,14.62
2023-03-24T22:04:50.837Z,14.60
2023-03-24T22:07:56.912Z,14.60
2023-03-24T22:11:04.093Z,14.61
2023-03-24T22:14:04.989Z,14.59
2023-03-24T22:17:10.126Z,14.58
2023-03-24T22:20:13.069Z,14.57
2023-03-24T22:23:12.886Z,14.56
2023-03-24T22:26:19.903Z,14.55
2023-03-24T22:29:21.028Z,14.55
2023-03-24T22:32:25.198Z,14.54
2023-03-24T22:35:29.102Z,14.55
2023-03-24T22:38:30.045Z,14.55
2023-03-24T22:41:30.962Z,14.55
2023-03-24T22:44:32.959Z,14.52
2023-03-24T22:47:34.973Z,14.48
2023-03-24T22:50:36.174Z,14.46
2023-03-24T22:53:39.001Z,14.44
2023-03-24T22:56:41.034Z,14.42
2023-03-24T22:59:44.367Z,14.38
2023-03-24T23:02:45.070Z,14.36
2023-03-24T23:05:46.125Z,14.33
2023-03-24T23:08:49.602Z,14.30
2023-03-24T23:11:51.140Z,14.28
2023-03-24T23:14:54.052Z,14.28
2023-03-24T23:17:56.161Z,14.28
2023-03-24T23:21:03.394Z,14.28
2023-03-24T23:24:03.486Z,14.28
2023-03-24T23:27:06.977Z,14.29
2023-03-24T23:30:09.232Z,14.28
2023-03-24T23:33:14.069Z,14.28
2023-03-24T23:36:15.976Z,14.27
2023-03-24T23:39:20.123Z,14.28
2023-03-24T23:42:24.035Z,14.28
2023-03-24T23:45:27.012Z,14.29
2023-03-24T23:48:28.030Z,14.29
2023-03-24T23:51:30.018Z,14.30
2023-03-24T23:54:33.347Z,14.29
2023-03-24T23:57:34.237Z,14.29
